sensor_id;sensor_type;location;lat;lon;timestamp;P1;durP1;ratioP1;P2;durP2;ratioP2
80681;SDS011;70045;40.200;44.582;2023-10-19T00:01:00;25.30;;;11.70;;
80681;SDS011;70045;40.200;44.582;2023-10-19T00:03:25;27.08;;;12.15;;
80681;SDS011;70045;40.200;44.582;2023-10-19T00:05:55;21.42;;;9.63;;
80681;SDS011;70045;40.200;44.582;2023-10-19T00:10:50;20.23;;;9.20;;
80681;SDS011;70045;40.200;44.582;2023-10-19T00:13:17;18.85;;;9.10;;
80681;SDS011;70045;40.200;44.582;2023-10-19T00:15:42;19.38;;;8.57;;
80681;SDS011;70045;40.200;44.582;2023-10-19T00:18:11;18.30;;;8.80;;
80681;SDS011;70045;40.200;44.582;2023-10-19T00:20:36;17.08;;;8.77;;
80681;SDS011;70045;40.200;44.582;2023-10-19T00:23:02;17.60;;;9.00;;
80681;SDS011;70045;40.200;44.582;2023-10-19T00:25:28;21.13;;;9.70;;
80681;SDS011;70045;40.200;44.582;2023-10-19T00:27:53;18.90;;;9.32;;
80681;SDS011;70045;40.200;44.582;2023-10-19T00:30:21;20.38;;;10.30;;
80681;SDS011;70045;40.200;44.582;2023-10-19T00:32:47;22.90;;;10.60;;
80681;SDS011;70045;40.200;44.582;2023-10-19T00:35:12;23.27;;;10.15;;
80681;SDS011;70045;40.200;44.582;2023-10-19T00:37:37;25.90;;;12.48;;
80681;SDS011;70045;40.200;44.582;2023-10-19T00:40:03;21.55;;;10.98;;
80681;SDS011;70045;40.200;44.582;2023-10-19T00:42:31;19.77;;;10.10;;
80681;SDS011;70045;40.200;44.582;2023-10-19T00:44:58;22.10;;;10.60;;
80681;SDS011;70045;40.200;44.582;2023-10-19T00:47:23;16.73;;;9.63;;
80681;SDS011;70045;40.200;44.582;2023-10-19T00:49:48;20.63;;;10.18;;
80681;SDS011;70045;40.200;44.582;2023-10-19T00:52:14;19.58;;;11.00;;
80681;SDS011;70045;40.200;44.582;2023-10-19T00:54:42;24.65;;;12.48;;
80681;SDS011;70045;40.200;44.582;2023-10-19T00:57:08;25.92;;;12.43;;
80681;SDS011;70045;40.200;44.582;2023-10-19T00:59:34;23.40;;;11.85;;
80681;SDS011;70045;40.200;44.582;2023-10-19T01:02:02;25.35;;;11.48;;
80681;SDS011;70045;40.200;44.582;2023-10-19T01:04:27;24.15;;;10.35;;
80681;SDS011;70045;40.200;44.582;2023-10-19T01:06:55;26.73;;;12.18;;
80681;SDS011;70045;40.200;44.582;2023-10-19T01:09:21;24.15;;;11.63;;
80681;SDS011;70045;40.200;44.582;2023-10-19T01:11:46;21.73;;;11.13;;
80681;SDS011;70045;40.200;44.582;2023-10-19T01:14:21;22.20;;;10.85;;
80681;SDS011;70045;40.200;44.582;2023-10-19T01:16:48;24.00;;;10.93;;
80681;SDS011;70045;40.200;44.582;2023-10-19T01:19:16;20.90;;;11.60;;
80681;SDS011;70045;40.200;44.582;2023-10-19T01:21:41;24.63;;;11.55;;
80681;SDS011;70045;40.200;44.582;2023-10-19T01:24:07;21.90;;;11.00;;
80681;SDS011;70045;40.200;44.582;2023-10-19T01:26:33;25.17;;;11.93;;
80681;SDS011;70045;40.200;44.582;2023-10-19T01:28:58;24.65;;;11.55;;
80681;SDS011;70045;40.200;44.582;2023-10-19T01:31:26;20.98;;;11.40;;
80681;SDS011;70045;40.200;44.582;2023-10-19T01:33:52;16.63;;;8.88;;
80681;SDS011;70045;40.200;44.582;2023-10-19T01:36:17;18.75;;;9.85;;
80681;SDS011;70045;40.200;44.582;2023-10-19T01:38:42;20.65;;;9.18;;
80681;SDS011;70045;40.200;44.582;2023-10-19T01:41:08;15.38;;;8.98;;
80681;SDS011;70045;40.200;44.582;2023-10-19T01:43:37;13.75;;;6.68;;
80681;SDS011;70045;40.200;44.582;2023-10-19T01:46:02;10.63;;;5.82;;
80681;SDS011;70045;40.200;44.582;2023-10-19T01:48:28;9.57;;;5.65;;
80681;SDS011;70045;40.200;44.582;2023-10-19T01:50:53;9.18;;;5.43;;
80681;SDS011;70045;40.200;44.582;2023-10-19T01:53:18;8.18;;;4.35;;
80681;SDS011;70045;40.200;44.582;2023-10-19T01:55:46;10.35;;;5.78;;
80681;SDS011;70045;40.200;44.582;2023-10-19T01:58:12;7.85;;;4.80;;
80681;SDS011;70045;40.200;44.582;2023-10-19T02:00:37;13.63;;;5.10;;
80681;SDS011;70045;40.200;44.582;2023-10-19T02:03:06;10.25;;;4.93;;
80681;SDS011;70045;40.200;44.582;2023-10-19T02:05:33;13.13;;;5.50;;
80681;SDS011;70045;40.200;44.582;2023-10-19T02:08:03;10.15;;;5.97;;
80681;SDS011;70045;40.200;44.582;2023-10-19T02:10:29;10.30;;;5.47;;
80681;SDS011;70045;40.200;44.582;2023-10-19T02:12:54;11.35;;;5.30;;
80681;SDS011;70045;40.200;44.582;2023-10-19T02:15:20;9.88;;;5.47;;
80681;SDS011;70045;40.200;44.582;2023-10-19T02:17:45;10.13;;;5.25;;
80681;SDS011;70045;40.200;44.582;2023-10-19T02:20:13;8.07;;;4.68;;
80681;SDS011;70045;40.200;44.582;2023-10-19T02:22:39;9.95;;;5.63;;
80681;SDS011;70045;40.200;44.582;2023-10-19T02:25:04;10.30;;;5.28;;
80681;SDS011;70045;40.200;44.582;2023-10-19T02:27:30;9.32;;;5.07;;
80681;SDS011;70045;40.200;44.582;2023-10-19T02:29:55;8.07;;;4.95;;
80681;SDS011;70045;40.200;44.582;2023-10-19T02:32:23;11.32;;;5.45;;
80681;SDS011;70045;40.200;44.582;2023-10-19T02:34:49;9.95;;;5.43;;
80681;SDS011;70045;40.200;44.582;2023-10-19T02:37:14;8.07;;;5.07;;
80681;SDS011;70045;40.200;44.582;2023-10-19T02:39:39;11.15;;;5.15;;
80681;SDS011;70045;40.200;44.582;2023-10-19T02:42:05;9.32;;;5.43;;
80681;SDS011;70045;40.200;44.582;2023-10-19T02:44:33;9.65;;;4.90;;
80681;SDS011;70045;40.200;44.582;2023-10-19T02:46:58;10.65;;;4.93;;
80681;SDS011;70045;40.200;44.582;2023-10-19T02:49:24;9.20;;;4.78;;
80681;SDS011;70045;40.200;44.582;2023-10-19T02:51:50;6.53;;;4.03;;
80681;SDS011;70045;40.200;44.582;2023-10-19T02:54:17;8.52;;;4.40;;
80681;SDS011;70045;40.200;44.582;2023-10-19T02:56:47;7.75;;;3.58;;
80681;SDS011;70045;40.200;44.582;2023-10-19T02:59:13;6.88;;;4.05;;
80681;SDS011;70045;40.200;44.582;2023-10-19T03:01:38;4.78;;;2.97;;
80681;SDS011;70045;40.200;44.582;2023-10-19T03:04:04;7.80;;;3.78;;
80681;SDS011;70045;40.200;44.582;2023-10-19T03:06:30;5.43;;;3.45;;
80681;SDS011;70045;40.200;44.582;2023-10-19T03:08:58;4.80;;;3.00;;
80681;SDS011;70045;40.200;44.582;2023-10-19T03:11:25;6.75;;;3.20;;
80681;SDS011;70045;40.200;44.582;2023-10-19T03:13:50;5.18;;;3.17;;
80681;SDS011;70045;40.200;44.582;2023-10-19T03:16:17;6.75;;;3.08;;
80681;SDS011;70045;40.200;44.582;2023-10-19T03:18:43;4.97;;;3.17;;
80681;SDS011;70045;40.200;44.582;2023-10-19T03:21:11;5.53;;;3.63;;
80681;SDS011;70045;40.200;44.582;2023-10-19T03:23:37;5.55;;;3.10;;
80681;SDS011;70045;40.200;44.582;2023-10-19T03:26:02;4.35;;;2.80;;
80681;SDS011;70045;40.200;44.582;2023-10-19T03:28:27;4.65;;;3.05;;
80681;SDS011;70045;40.200;44.582;2023-10-19T03:30:53;4.32;;;3.03;;
80681;SDS011;70045;40.200;44.582;2023-10-19T03:33:21;5.30;;;3.25;;
80681;SDS011;70045;40.200;44.582;2023-10-19T03:35:46;4.97;;;3.10;;
80681;SDS011;70045;40.200;44.582;2023-10-19T03:38:12;5.03;;;2.90;;
80681;SDS011;70045;40.200;44.582;2023-10-19T03:40:37;7.55;;;3.42;;
80681;SDS011;70045;40.200;44.582;2023-10-19T03:43:02;10.25;;;5.68;;
80681;SDS011;70045;40.200;44.582;2023-10-19T03:45:31;16.80;;;6.90;;
80681;SDS011;70045;40.200;44.582;2023-10-19T03:47:56;12.35;;;6.60;;
80681;SDS011;70045;40.200;44.582;2023-10-19T03:50:21;13.20;;;7.20;;
80681;SDS011;70045;40.200;44.582;2023-10-19T03:52:47;16.73;;;8.57;;
80681;SDS011;70045;40.200;44.582;2023-10-19T03:55:12;14.85;;;8.50;;
80681;SDS011;70045;40.200;44.582;2023-10-19T03:57:41;18.70;;;9.13;;
80681;SDS011;70045;40.200;44.582;2023-10-19T04:00:06;14.50;;;7.93;;
80681;SDS011;70045;40.200;44.582;2023-10-19T04:02:32;19.70;;;9.85;;
80681;SDS011;70045;40.200;44.582;2023-10-19T04:04:58;18.63;;;10.25;;
80681;SDS011;70045;40.200;44.582;2023-10-19T04:07:23;19.60;;;11.20;;
80681;SDS011;70045;40.200;44.582;2023-10-19T04:09:52;21.52;;;10.95;;
80681;SDS011;70045;40.200;44.582;2023-10-19T04:12:20;21.15;;;11.80;;
80681;SDS011;70045;40.200;44.582;2023-10-19T04:14:45;23.52;;;12.68;;
80681;SDS011;70045;40.200;44.582;2023-10-19T04:17:10;21.98;;;12.32;;
80681;SDS011;70045;40.200;44.582;2023-10-19T04:19:36;22.75;;;12.90;;
80681;SDS011;70045;40.200;44.582;2023-10-19T04:22:04;22.48;;;11.50;;
80681;SDS011;70045;40.200;44.582;2023-10-19T04:24:29;24.80;;;11.68;;
80681;SDS011;70045;40.200;44.582;2023-10-19T04:26:55;19.92;;;10.80;;
80681;SDS011;70045;40.200;44.582;2023-10-19T04:29:20;17.52;;;9.95;;
80681;SDS011;70045;40.200;44.582;2023-10-19T04:31:46;17.90;;;9.43;;
80681;SDS011;70045;40.200;44.582;2023-10-19T04:34:14;13.23;;;8.60;;
80681;SDS011;70045;40.200;44.582;2023-10-19T04:36:39;18.13;;;9.27;;
80681;SDS011;70045;40.200;44.582;2023-10-19T04:39:05;16.48;;;9.50;;
80681;SDS011;70045;40.200;44.582;2023-10-19T04:41:30;18.58;;;9.50;;
80681;SDS011;70045;40.200;44.582;2023-10-19T04:43:56;17.85;;;9.82;;
80681;SDS011;70045;40.200;44.582;2023-10-19T04:46:24;23.13;;;10.82;;
80681;SDS011;70045;40.200;44.582;2023-10-19T04:48:49;22.33;;;12.32;;
80681;SDS011;70045;40.200;44.582;2023-10-19T04:51:14;28.80;;;15.95;;
80681;SDS011;70045;40.200;44.582;2023-10-19T04:53:40;36.45;;;18.70;;
80681;SDS011;70045;40.200;44.582;2023-10-19T04:56:06;36.28;;;18.50;;
80681;SDS011;70045;40.200;44.582;2023-10-19T04:58:35;34.03;;;16.67;;
80681;SDS011;70045;40.200;44.582;2023-10-19T05:14:19;17.77;;;8.60;;
80681;SDS011;70045;40.200;44.582;2023-10-19T05:16:45;16.15;;;8.50;;
80681;SDS011;70045;40.200;44.582;2023-10-19T05:19:10;15.98;;;7.30;;
80681;SDS011;70045;40.200;44.582;2023-10-19T05:21:35;16.20;;;6.72;;
80681;SDS011;70045;40.200;44.582;2023-10-19T05:24:01;13.27;;;6.80;;
80681;SDS011;70045;40.200;44.582;2023-10-19T05:26:29;14.20;;;7.10;;
80681;SDS011;70045;40.200;44.582;2023-10-19T05:28:54;17.65;;;6.70;;
80681;SDS011;70045;40.200;44.582;2023-10-19T05:31:20;14.20;;;6.80;;
80681;SDS011;70045;40.200;44.582;2023-10-19T05:33:45;13.57;;;6.47;;
80681;SDS011;70045;40.200;44.582;2023-10-19T05:36:11;11.20;;;6.65;;
80681;SDS011;70045;40.200;44.582;2023-10-19T05:38:39;10.05;;;5.97;;
80681;SDS011;70045;40.200;44.582;2023-10-19T05:41:05;10.95;;;5.88;;
80681;SDS011;70045;40.200;44.582;2023-10-19T05:43:30;10.18;;;5.82;;
80681;SDS011;70045;40.200;44.582;2023-10-19T05:45:56;11.57;;;5.63;;
80681;SDS011;70045;40.200;44.582;2023-10-19T05:48:21;13.57;;;5.65;;
80681;SDS011;70045;40.200;44.582;2023-10-19T05:50:50;11.63;;;5.95;;
80681;SDS011;70045;40.200;44.582;2023-10-19T05:53:15;10.18;;;5.28;;
80681;SDS011;70045;40.200;44.582;2023-10-19T05:55:40;11.35;;;5.28;;
80681;SDS011;70045;40.200;44.582;2023-10-19T05:58:06;7.45;;;4.32;;
80681;SDS011;70045;40.200;44.582;2023-10-19T06:00:31;11.85;;;4.93;;
80681;SDS011;70045;40.200;44.582;2023-10-19T06:02:59;7.93;;;3.90;;
80681;SDS011;70045;40.200;44.582;2023-10-19T06:05:25;8.30;;;4.20;;
80681;SDS011;70045;40.200;44.582;2023-10-19T06:07:50;9.05;;;3.80;;
80681;SDS011;70045;40.200;44.582;2023-10-19T06:10:17;6.25;;;3.70;;
80681;SDS011;70045;40.200;44.582;2023-10-19T06:12:50;4.93;;;2.97;;
80681;SDS011;70045;40.200;44.582;2023-10-19T06:15:20;8.93;;;3.67;;
80681;SDS011;70045;40.200;44.582;2023-10-19T06:17:46;5.28;;;2.97;;
80681;SDS011;70045;40.200;44.582;2023-10-19T06:20:13;6.78;;;3.00;;
80681;SDS011;70045;40.200;44.582;2023-10-19T06:22:39;6.13;;;2.90;;
80681;SDS011;70045;40.200;44.582;2023-10-19T06:25:05;5.13;;;2.65;;
80681;SDS011;70045;40.200;44.582;2023-10-19T06:27:33;5.57;;;2.72;;
80681;SDS011;70045;40.200;44.582;2023-10-19T06:29:59;4.30;;;2.65;;
80681;SDS011;70045;40.200;44.582;2023-10-19T06:32:24;4.72;;;2.55;;
80681;SDS011;70045;40.200;44.582;2023-10-19T06:34:49;4.18;;;2.85;;
80681;SDS011;70045;40.200;44.582;2023-10-19T06:37:15;4.25;;;2.50;;
80681;SDS011;70045;40.200;44.582;2023-10-19T06:39:43;7.85;;;2.92;;
80681;SDS011;70045;40.200;44.582;2023-10-19T06:42:08;7.28;;;3.20;;
80681;SDS011;70045;40.200;44.582;2023-10-19T06:44:34;3.97;;;2.72;;
80681;SDS011;70045;40.200;44.582;2023-10-19T06:46:59;5.38;;;2.80;;
80681;SDS011;70045;40.200;44.582;2023-10-19T06:49:24;4.97;;;2.80;;
80681;SDS011;70045;40.200;44.582;2023-10-19T06:51:53;6.93;;;2.70;;
80681;SDS011;70045;40.200;44.582;2023-10-19T06:54:18;5.47;;;2.53;;
80681;SDS011;70045;40.200;44.582;2023-10-19T06:56:43;4.78;;;2.72;;
80681;SDS011;70045;40.200;44.582;2023-10-19T06:59:09;4.35;;;2.60;;
80681;SDS011;70045;40.200;44.582;2023-10-19T07:01:34;4.97;;;2.75;;
80681;SDS011;70045;40.200;44.582;2023-10-19T07:04:02;8.15;;;2.45;;
80681;SDS011;70045;40.200;44.582;2023-10-19T07:06:28;3.25;;;2.20;;
80681;SDS011;70045;40.200;44.582;2023-10-19T07:08:53;4.07;;;2.05;;
80681;SDS011;70045;40.200;44.582;2023-10-19T07:11:19;3.92;;;2.17;;
80681;SDS011;70045;40.200;44.582;2023-10-19T07:13:44;5.43;;;2.45;;
80681;SDS011;70045;40.200;44.582;2023-10-19T07:16:12;4.28;;;2.35;;
80681;SDS011;70045;40.200;44.582;2023-10-19T07:18:38;4.50;;;2.20;;
80681;SDS011;70045;40.200;44.582;2023-10-19T07:21:03;4.75;;;2.30;;
80681;SDS011;70045;40.200;44.582;2023-10-19T07:23:29;6.10;;;3.03;;
80681;SDS011;70045;40.200;44.582;2023-10-19T07:25:54;6.22;;;2.90;;
80681;SDS011;70045;40.200;44.582;2023-10-19T07:28:23;7.80;;;3.00;;
80681;SDS011;70045;40.200;44.582;2023-10-19T07:33:15;5.97;;;2.70;;
80681;SDS011;70045;40.200;44.582;2023-10-19T07:35:40;4.38;;;2.80;;
80681;SDS011;70045;40.200;44.582;2023-10-19T07:38:06;4.57;;;2.70;;
80681;SDS011;70045;40.200;44.582;2023-10-19T07:40:35;5.72;;;2.50;;
80681;SDS011;70045;40.200;44.582;2023-10-19T07:43:01;4.03;;;2.50;;
80681;SDS011;70045;40.200;44.582;2023-10-19T07:45:27;5.80;;;2.58;;
80681;SDS011;70045;40.200;44.582;2023-10-19T07:47:52;7.05;;;2.78;;
80681;SDS011;70045;40.200;44.582;2023-10-19T07:50:18;5.97;;;2.95;;
80681;SDS011;70045;40.200;44.582;2023-10-19T07:52:47;5.78;;;2.97;;
80681;SDS011;70045;40.200;44.582;2023-10-19T07:55:14;6.53;;;3.10;;
80681;SDS011;70045;40.200;44.582;2023-10-19T07:57:44;5.63;;;2.88;;
80681;SDS011;70045;40.200;44.582;2023-10-19T08:00:10;10.05;;;3.10;;
80681;SDS011;70045;40.200;44.582;2023-10-19T08:02:37;4.85;;;2.42;;
80681;SDS011;70045;40.200;44.582;2023-10-19T08:05:05;6.43;;;2.40;;
80681;SDS011;70045;40.200;44.582;2023-10-19T08:07:31;6.68;;;2.03;;
80681;SDS011;70045;40.200;44.582;2023-10-19T08:09:57;3.75;;;2.00;;
80681;SDS011;70045;40.200;44.582;2023-10-19T08:12:22;5.00;;;2.20;;
80681;SDS011;70045;40.200;44.582;2023-10-19T08:14:48;3.88;;;2.10;;
80681;SDS011;70045;40.200;44.582;2023-10-19T08:17:16;8.25;;;5.47;;
80681;SDS011;70045;40.200;44.582;2023-10-19T08:19:41;6.72;;;3.63;;
80681;SDS011;70045;40.200;44.582;2023-10-19T08:22:07;2.72;;;1.77;;
80681;SDS011;70045;40.200;44.582;2023-10-19T08:24:32;2.33;;;1.50;;
80681;SDS011;70045;40.200;44.582;2023-10-19T08:26:58;2.35;;;1.40;;
80681;SDS011;70045;40.200;44.582;2023-10-19T08:29:26;1.98;;;1.10;;
80681;SDS011;70045;40.200;44.582;2023-10-19T08:31:52;1.50;;;1.30;;
80681;SDS011;70045;40.200;44.582;2023-10-19T08:34:17;4.65;;;1.40;;
80681;SDS011;70045;40.200;44.582;2023-10-19T08:36:42;2.13;;;1.42;;
80681;SDS011;70045;40.200;44.582;2023-10-19T08:39:08;4.32;;;1.50;;
80681;SDS011;70045;40.200;44.582;2023-10-19T08:41:37;1.90;;;1.40;;
80681;SDS011;70045;40.200;44.582;2023-10-19T08:44:05;1.70;;;1.15;;
80681;SDS011;70045;40.200;44.582;2023-10-19T08:46:31;1.17;;;0.70;;
80681;SDS011;70045;40.200;44.582;2023-10-19T08:48:56;0.80;;;0.80;;
80681;SDS011;70045;40.200;44.582;2023-10-19T08:51:22;1.02;;;0.95;;
80681;SDS011;70045;40.200;44.582;2023-10-19T08:53:52;1.20;;;0.93;;
80681;SDS011;70045;40.200;44.582;2023-10-19T08:56:20;1.80;;;0.75;;
80681;SDS011;70045;40.200;44.582;2023-10-19T08:58:45;1.92;;;0.77;;
80681;SDS011;70045;40.200;44.582;2023-10-19T09:01:10;0.70;;;0.70;;
80681;SDS011;70045;40.200;44.582;2023-10-19T09:03:36;2.60;;;1.20;;
80681;SDS011;70045;40.200;44.582;2023-10-19T09:06:04;3.53;;;1.90;;
80681;SDS011;70045;40.200;44.582;2023-10-19T09:08:30;3.95;;;1.80;;
80681;SDS011;70045;40.200;44.582;2023-10-19T09:10:55;4.82;;;1.88;;
80681;SDS011;70045;40.200;44.582;2023-10-19T09:13:21;3.70;;;1.80;;
80681;SDS011;70045;40.200;44.582;2023-10-19T09:15:47;5.40;;;2.20;;
80681;SDS011;70045;40.200;44.582;2023-10-19T09:18:19;1.95;;;1.30;;
80681;SDS011;70045;40.200;44.582;2023-10-19T09:20:47;1.85;;;1.00;;
80681;SDS011;70045;40.200;44.582;2023-10-19T09:23:14;1.35;;;1.00;;
80681;SDS011;70045;40.200;44.582;2023-10-19T09:25:39;1.10;;;0.75;;
80681;SDS011;70045;40.200;44.582;2023-10-19T09:28:05;1.10;;;0.77;;
80681;SDS011;70045;40.200;44.582;2023-10-19T09:30:33;1.38;;;0.77;;
80681;SDS011;70045;40.200;44.582;2023-10-19T09:32:58;1.25;;;0.90;;
80681;SDS011;70045;40.200;44.582;2023-10-19T09:35:26;1.50;;;0.95;;
80681;SDS011;70045;40.200;44.582;2023-10-19T09:37:52;0.98;;;0.68;;
80681;SDS011;70045;40.200;44.582;2023-10-19T09:40:17;1.30;;;1.00;;
80681;SDS011;70045;40.200;44.582;2023-10-19T09:42:46;2.63;;;1.30;;
80681;SDS011;70045;40.200;44.582;2023-10-19T09:45:16;3.00;;;1.00;;
80681;SDS011;70045;40.200;44.582;2023-10-19T09:47:46;1.35;;;0.95;;
80681;SDS011;70045;40.200;44.582;2023-10-19T09:50:15;1.10;;;1.00;;
80681;SDS011;70045;40.200;44.582;2023-10-19T09:52:40;1.90;;;1.40;;
80681;SDS011;70045;40.200;44.582;2023-10-19T09:55:14;2.35;;;1.67;;
80681;SDS011;70045;40.200;44.582;2023-10-19T09:58:00;2.15;;;1.27;;
80681;SDS011;70045;40.200;44.582;2023-10-19T10:00:30;1.50;;;1.35;;
80681;SDS011;70045;40.200;44.582;2023-10-19T10:02:56;1.20;;;1.00;;
80681;SDS011;70045;40.200;44.582;2023-10-19T10:10:51;1.45;;;1.17;;
80681;SDS011;70045;40.200;44.582;2023-10-19T10:15:54;2.05;;;1.33;;
80681;SDS011;70045;40.200;44.582;2023-10-19T10:18:24;2.72;;;1.30;;
80681;SDS011;70045;40.200;44.582;2023-10-19T10:23:49;2.35;;;1.30;;
80681;SDS011;70045;40.200;44.582;2023-10-19T10:26:22;3.05;;;1.42;;
80681;SDS011;70045;40.200;44.582;2023-10-19T10:28:50;2.08;;;1.38;;
80681;SDS011;70045;40.200;44.582;2023-10-19T10:31:34;2.67;;;1.10;;
80681;SDS011;70045;40.200;44.582;2023-10-19T10:34:05;2.00;;;1.20;;
80681;SDS011;70045;40.200;44.582;2023-10-19T10:39:30;1.95;;;1.33;;
80681;SDS011;70045;40.200;44.582;2023-10-19T10:41:56;7.35;;;3.95;;
80681;SDS011;70045;40.200;44.582;2023-10-19T10:44:34;2.65;;;1.60;;
80681;SDS011;70045;40.200;44.582;2023-10-19T10:47:16;4.55;;;1.80;;
80681;SDS011;70045;40.200;44.582;2023-10-19T10:49:50;3.97;;;2.10;;
80681;SDS011;70045;40.200;44.582;2023-10-19T10:52:26;3.25;;;1.90;;
80681;SDS011;70045;40.200;44.582;2023-10-19T10:54:52;5.82;;;2.85;;
80681;SDS011;70045;40.200;44.582;2023-10-19T10:57:20;3.72;;;2.10;;
80681;SDS011;70045;40.200;44.582;2023-10-19T10:59:46;2.42;;;1.50;;
80681;SDS011;70045;40.200;44.582;2023-10-19T11:02:20;2.53;;;1.45;;
80681;SDS011;70045;40.200;44.582;2023-10-19T11:04:46;2.95;;;1.90;;
80681;SDS011;70045;40.200;44.582;2023-10-19T11:07:18;3.47;;;1.90;;
80681;SDS011;70045;40.200;44.582;2023-10-19T11:09:47;2.90;;;1.77;;
80681;SDS011;70045;40.200;44.582;2023-10-19T11:12:13;5.55;;;2.33;;
80681;SDS011;70045;40.200;44.582;2023-10-19T11:14:55;4.47;;;2.13;;
80681;SDS011;70045;40.200;44.582;2023-10-19T11:17:21;3.42;;;1.73;;
80681;SDS011;70045;40.200;44.582;2023-10-19T11:19:47;2.50;;;1.67;;
80681;SDS011;70045;40.200;44.582;2023-10-19T11:22:15;4.60;;;2.20;;
80681;SDS011;70045;40.200;44.582;2023-10-19T11:24:40;4.78;;;2.50;;
80681;SDS011;70045;40.200;44.582;2023-10-19T11:27:06;4.78;;;2.15;;
80681;SDS011;70045;40.200;44.582;2023-10-19T11:29:31;5.53;;;2.35;;
80681;SDS011;70045;40.200;44.582;2023-10-19T11:31:59;18.02;;;6.40;;
80681;SDS011;70045;40.200;44.582;2023-10-19T11:34:25;8.88;;;3.40;;
80681;SDS011;70045;40.200;44.582;2023-10-19T11:36:54;5.28;;;2.40;;
80681;SDS011;70045;40.200;44.582;2023-10-19T11:39:21;6.00;;;2.90;;
80681;SDS011;70045;40.200;44.582;2023-10-19T11:41:47;7.82;;;3.00;;
80681;SDS011;70045;40.200;44.582;2023-10-19T11:44:15;7.25;;;2.78;;
80681;SDS011;70045;40.200;44.582;2023-10-19T11:46:40;4.40;;;2.20;;
80681;SDS011;70045;40.200;44.582;2023-10-19T11:49:06;6.05;;;2.08;;
80681;SDS011;70045;40.200;44.582;2023-10-19T11:51:31;5.68;;;2.33;;
80681;SDS011;70045;40.200;44.582;2023-10-19T11:53:57;10.65;;;3.80;;
80681;SDS011;70045;40.200;44.582;2023-10-19T11:56:25;19.80;;;6.07;;
80681;SDS011;70045;40.200;44.582;2023-10-19T11:58:50;9.32;;;3.58;;
80681;SDS011;70045;40.200;44.582;2023-10-19T12:01:16;12.98;;;3.10;;
80681;SDS011;70045;40.200;44.582;2023-10-19T12:03:41;8.23;;;2.90;;
80681;SDS011;70045;40.200;44.582;2023-10-19T12:06:07;6.10;;;2.53;;
80681;SDS011;70045;40.200;44.582;2023-10-19T12:08:36;6.55;;;2.70;;
80681;SDS011;70045;40.200;44.582;2023-10-19T12:11:03;5.97;;;2.85;;
80681;SDS011;70045;40.200;44.582;2023-10-19T12:13:29;7.25;;;3.28;;
80681;SDS011;70045;40.200;44.582;2023-10-19T12:15:56;6.13;;;2.72;;
80681;SDS011;70045;40.200;44.582;2023-10-19T12:18:22;7.55;;;3.15;;
80681;SDS011;70045;40.200;44.582;2023-10-19T12:20:50;6.82;;;2.70;;
80681;SDS011;70045;40.200;44.582;2023-10-19T12:23:15;7.13;;;3.35;;
80681;SDS011;70045;40.200;44.582;2023-10-19T12:25:40;7.28;;;3.45;;
80681;SDS011;70045;40.200;44.582;2023-10-19T12:28:06;6.82;;;3.55;;
80681;SDS011;70045;40.200;44.582;2023-10-19T12:30:31;6.80;;;3.55;;
80681;SDS011;70045;40.200;44.582;2023-10-19T12:33:00;5.60;;;3.25;;
80681;SDS011;70045;40.200;44.582;2023-10-19T12:35:25;6.80;;;3.10;;
80681;SDS011;70045;40.200;44.582;2023-10-19T12:37:51;8.35;;;3.53;;
80681;SDS011;70045;40.200;44.582;2023-10-19T12:40:16;9.50;;;3.97;;
80681;SDS011;70045;40.200;44.582;2023-10-19T12:42:42;9.60;;;4.43;;
80681;SDS011;70045;40.200;44.582;2023-10-19T12:45:10;10.18;;;4.43;;
80681;SDS011;70045;40.200;44.582;2023-10-19T12:47:35;10.38;;;4.43;;
80681;SDS011;70045;40.200;44.582;2023-10-19T12:50:01;9.82;;;4.78;;
80681;SDS011;70045;40.200;44.582;2023-10-19T12:52:26;9.02;;;4.13;;
80681;SDS011;70045;40.200;44.582;2023-10-19T12:54:51;9.00;;;3.90;;
80681;SDS011;70045;40.200;44.582;2023-10-19T12:57:20;9.82;;;4.35;;
80681;SDS011;70045;40.200;44.582;2023-10-19T12:59:45;15.27;;;4.72;;
80681;SDS011;70045;40.200;44.582;2023-10-19T13:02:10;9.43;;;3.80;;
80681;SDS011;70045;40.200;44.582;2023-10-19T13:04:36;7.03;;;4.00;;
80681;SDS011;70045;40.200;44.582;2023-10-19T13:07:01;12.07;;;4.38;;
80681;SDS011;70045;40.200;44.582;2023-10-19T13:09:29;14.60;;;4.75;;
80681;SDS011;70045;40.200;44.582;2023-10-19T13:11:55;9.73;;;3.90;;
80681;SDS011;70045;40.200;44.582;2023-10-19T13:14:20;14.10;;;5.00;;
80681;SDS011;70045;40.200;44.582;2023-10-19T13:16:45;8.82;;;4.15;;
80681;SDS011;70045;40.200;44.582;2023-10-19T13:19:11;7.72;;;3.58;;
80681;SDS011;70045;40.200;44.582;2023-10-19T13:21:39;10.90;;;3.55;;
80681;SDS011;70045;40.200;44.582;2023-10-19T13:24:05;7.30;;;3.72;;
80681;SDS011;70045;40.200;44.582;2023-10-19T13:26:31;7.68;;;3.53;;
80681;SDS011;70045;40.200;44.582;2023-10-19T13:28:56;7.43;;;3.65;;
80681;SDS011;70045;40.200;44.582;2023-10-19T13:31:22;6.25;;;3.20;;
80681;SDS011;70045;40.200;44.582;2023-10-19T13:33:50;6.72;;;3.13;;
80681;SDS011;70045;40.200;44.582;2023-10-19T13:36:15;7.50;;;3.22;;
80681;SDS011;70045;40.200;44.582;2023-10-19T13:38:41;13.80;;;7.80;;
80681;SDS011;70045;40.200;44.582;2023-10-19T13:41:06;27.75;;;19.85;;
80681;SDS011;70045;40.200;44.582;2023-10-19T13:43:32;25.15;;;16.70;;
80681;SDS011;70045;40.200;44.582;2023-10-19T13:46:01;13.43;;;9.65;;
80681;SDS011;70045;40.200;44.582;2023-10-19T13:48:26;8.50;;;5.53;;
80681;SDS011;70045;40.200;44.582;2023-10-19T13:50:52;7.55;;;4.25;;
80681;SDS011;70045;40.200;44.582;2023-10-19T13:53:17;8.98;;;3.38;;
80681;SDS011;70045;40.200;44.582;2023-10-19T13:55:43;9.73;;;5.38;;
80681;SDS011;70045;40.200;44.582;2023-10-19T13:58:11;13.07;;;4.20;;
80681;SDS011;70045;40.200;44.582;2023-10-19T14:00:37;6.13;;;3.47;;
80681;SDS011;70045;40.200;44.582;2023-10-19T14:03:02;9.20;;;5.72;;
80681;SDS011;70045;40.200;44.582;2023-10-19T14:05:29;8.10;;;4.25;;
80681;SDS011;70045;40.200;44.582;2023-10-19T14:07:54;6.13;;;3.42;;
80681;SDS011;70045;40.200;44.582;2023-10-19T14:10:22;7.63;;;4.03;;
80681;SDS011;70045;40.200;44.582;2023-10-19T14:25:03;8.02;;;4.07;;
80681;SDS011;70045;40.200;44.582;2023-10-19T14:27:29;12.43;;;5.35;;
80681;SDS011;70045;40.200;44.582;2023-10-19T14:29:54;13.07;;;4.63;;
80681;SDS011;70045;40.200;44.582;2023-10-19T14:32:20;8.63;;;4.10;;
80681;SDS011;70045;40.200;44.582;2023-10-19T14:34:45;7.28;;;4.00;;
80681;SDS011;70045;40.200;44.582;2023-10-19T14:37:13;6.30;;;3.42;;
80681;SDS011;70045;40.200;44.582;2023-10-19T14:39:39;6.57;;;3.65;;
80681;SDS011;70045;40.200;44.582;2023-10-19T14:42:04;6.22;;;3.58;;
80681;SDS011;70045;40.200;44.582;2023-10-19T14:44:29;6.32;;;3.42;;
80681;SDS011;70045;40.200;44.582;2023-10-19T14:46:55;7.55;;;3.90;;
80681;SDS011;70045;40.200;44.582;2023-10-19T14:49:23;6.07;;;3.47;;
80681;SDS011;70045;40.200;44.582;2023-10-19T14:51:48;5.97;;;3.05;;
80681;SDS011;70045;40.200;44.582;2023-10-19T14:54:14;5.97;;;2.70;;
80681;SDS011;70045;40.200;44.582;2023-10-19T14:56:39;5.25;;;2.60;;
80681;SDS011;70045;40.200;44.582;2023-10-19T14:59:04;7.63;;;3.15;;
80681;SDS011;70045;40.200;44.582;2023-10-19T15:01:33;4.28;;;2.45;;
80681;SDS011;70045;40.200;44.582;2023-10-19T15:03:58;4.95;;;2.33;;
80681;SDS011;70045;40.200;44.582;2023-10-19T15:06:23;5.35;;;3.05;;
80681;SDS011;70045;40.200;44.582;2023-10-19T15:08:49;5.10;;;2.97;;